sensor_id;sensor_type;location;lat;lon;timestamp;temperature;humidity
28863;DHT22;15994;51.796;13.006;2023-01-10T00:00:24;6.30;99.90
28863;DHT22;15994;51.796;13.006;2023-01-10T00:02:51;6.30;99.90
28863;DHT22;15994;51.796;13.006;2023-01-10T00:05:18;6.30;99.90
28863;DHT22;15994;51.796;13.006;2023-01-10T00:07:45;6.30;99.90
28863;DHT22;15994;51.796;13.006;2023-01-10T00:10:11;6.30;99.90
28863;DHT22;15994;51.796;13.006;2023-01-10T00:12:38;6.20;99.90
28863;DHT22;15994;51.796;13.006;2023-01-10T00:15:22;6.20;99.90
28863;DHT22;15994;51.796;13.006;2023-01-10T00:17:49;6.20;99.90
28863;DHT22;15994;51.796;13.006;2023-01-10T00:20:15;6.30;99.90
28863;DHT22;15994;51.796;13.006;2023-01-10T00:22:42;6.30;99.90
28863;DHT22;15994;51.796;13.006;2023-01-10T00:25:09;6.30;99.90
28863;DHT22;15994;51.796;13.006;2023-01-10T00:27:36;6.30;99.90
28863;DHT22;15994;51.796;13.006;2023-01-10T00:30:03;6.30;99.90
28863;DHT22;15994;51.796;13.006;2023-01-10T00:32:41;6.30;99.90
28863;DHT22;15994;51.796;13.006;2023-01-10T00:35:08;6.30;99.90
28863;DHT22;15994;51.796;13.006;2023-01-10T00:37:36;6.40;99.90
28863;DHT22;15994;51.796;13.006;2023-01-10T00:40:04;6.40;99.90
28863;DHT22;15994;51.796;13.006;2023-01-10T00:42:33;6.40;99.90
28863;DHT22;15994;51.796;13.006;2023-01-10T00:45:17;6.40;99.90
28863;DHT22;15994;51.796;13.006;2023-01-10T00:47:45;6.40;99.90
28863;DHT22;15994;51.796;13.006;2023-01-10T00:50:11;6.40;99.90
28863;DHT22;15994;51.796;13.006;2023-01-10T00:52:38;6.40;99.90
28863;DHT22;15994;51.796;13.006;2023-01-10T00:55:05;6.40;99.90
28863;DHT22;15994;51.796;13.006;2023-01-10T00:57:31;6.40;99.90
28863;DHT22;15994;51.796;13.006;2023-01-10T00:59:58;6.40;99.90
28863;DHT22;15994;51.796;13.006;2023-01-10T01:02:24;6.40;99.90
28863;DHT22;15994;51.796;13.006;2023-01-10T01:04:51;6.40;99.90
28863;DHT22;15994;51.796;13.006;2023-01-10T01:07:17;6.40;99.90
28863;DHT22;15994;51.796;13.006;2023-01-10T01:09:44;6.40;99.90
28863;DHT22;15994;51.796;13.006;2023-01-10T01:12:24;6.40;99.90
28863;DHT22;15994;51.796;13.006;2023-01-10T01:14:51;6.30;99.90
28863;DHT22;15994;51.796;13.006;2023-01-10T01:17:18;6.30;99.90
28863;DHT22;15994;51.796;13.006;2023-01-10T01:19:44;6.20;99.90
28863;DHT22;15994;51.796;13.006;2023-01-10T01:22:11;6.20;99.90
28863;DHT22;15994;51.796;13.006;2023-01-10T01:24:37;6.20;99.90
28863;DHT22;15994;51.796;13.006;2023-01-10T01:27:04;6.30;99.90
28863;DHT22;15994;51.796;13.006;2023-01-10T01:29:31;6.30;99.90
28863;DHT22;15994;51.796;13.006;2023-01-10T01:31:57;6.30;99.90
28863;DHT22;15994;51.796;13.006;2023-01-10T01:34:24;6.30;99.90
28863;DHT22;15994;51.796;13.006;2023-01-10T01:36:50;6.30;99.90
28863;DHT22;15994;51.796;13.006;2023-01-10T01:39:17;6.40;99.90
28863;DHT22;15994;51.796;13.006;2023-01-10T01:41:43;6.40;99.90
28863;DHT22;15994;51.796;13.006;2023-01-10T01:44:23;6.50;99.90
28863;DHT22;15994;51.796;13.006;2023-01-10T01:47:22;6.50;99.90
28863;DHT22;15994;51.796;13.006;2023-01-10T01:49:49;6.50;99.90
28863;DHT22;15994;51.796;13.006;2023-01-10T01:52:29;6.50;99.90
28863;DHT22;15994;51.796;13.006;2023-01-10T01:54:58;6.50;99.90
28863;DHT22;15994;51.796;13.006;2023-01-10T01:57:29;6.50;99.90
28863;DHT22;15994;51.796;13.006;2023-01-10T01:59:57;6.50;99.90
28863;DHT22;15994;51.796;13.006;2023-01-10T02:02:31;6.50;99.90
28863;DHT22;15994;51.796;13.006;2023-01-10T02:05:02;6.50;99.90
28863;DHT22;15994;51.796;13.006;2023-01-10T02:07:33;6.50;99.90
28863;DHT22;15994;51.796;13.006;2023-01-10T02:10:12;6.40;99.90
28863;DHT22;15994;51.796;13.006;2023-01-10T02:12:41;6.50;99.90
28863;DHT22;15994;51.796;13.006;2023-01-10T02:15:10;6.50;99.90
28863;DHT22;15994;51.796;13.006;2023-01-10T02:17:37;6.50;99.90
28863;DHT22;15994;51.796;13.006;2023-01-10T02:20:07;6.50;99.90
28863;DHT22;15994;51.796;13.006;2023-01-10T02:26:00;6.50;99.90
28863;DHT22;15994;51.796;13.006;2023-01-10T02:28:54;6.50;99.90
28863;DHT22;15994;51.796;13.006;2023-01-10T02:31:50;6.50;99.90
28863;DHT22;15994;51.796;13.006;2023-01-10T02:34:29;6.50;99.90
28863;DHT22;15994;51.796;13.006;2023-01-10T02:37:12;6.50;99.90
28863;DHT22;15994;51.796;13.006;2023-01-10T02:40:31;6.60;99.90
28863;DHT22;15994;51.796;13.006;2023-01-10T02:42:57;6.50;99.90
28863;DHT22;15994;51.796;13.006;2023-01-10T02:45:32;6.50;99.90
28863;DHT22;15994;51.796;13.006;2023-01-10T02:48:00;6.50;99.90
28863;DHT22;15994;51.796;13.006;2023-01-10T02:53:19;6.50;99.90
28863;DHT22;15994;51.796;13.006;2023-01-10T02:58:58;6.60;99.90
28863;DHT22;15994;51.796;13.006;2023-01-10T03:07:20;6.60;99.90
28863;DHT22;15994;51.796;13.006;2023-01-10T03:12:50;6.60;99.90
28863;DHT22;15994;51.796;13.006;2023-01-10T03:15:20;6.60;99.90
28863;DHT22;15994;51.796;13.006;2023-01-10T03:17:50;6.60;99.90
28863;DHT22;15994;51.796;13.006;2023-01-10T03:20:20;6.70;99.90
28863;DHT22;15994;51.796;13.006;2023-01-10T03:22:47;6.70;99.90
28863;DHT22;15994;51.796;13.006;2023-01-10T03:25:15;6.70;99.90
28863;DHT22;15994;51.796;13.006;2023-01-10T03:28:01;6.70;99.90
28863;DHT22;15994;51.796;13.006;2023-01-10T03:30:38;6.70;99.90
28863;DHT22;15994;51.796;13.006;2023-01-10T03:33:06;6.70;99.90
28863;DHT22;15994;51.796;13.006;2023-01-10T03:35:59;6.70;99.90
28863;DHT22;15994;51.796;13.006;2023-01-10T03:41:16;6.70;99.90
28863;DHT22;15994;51.796;13.006;2023-01-10T03:43:50;6.60;99.90
28863;DHT22;15994;51.796;13.006;2023-01-10T03:46:45;6.60;99.90
28863;DHT22;15994;51.796;13.006;2023-01-10T03:49:15;6.70;99.90
28863;DHT22;15994;51.796;13.006;2023-01-10T03:51:43;6.60;99.90
28863;DHT22;15994;51.796;13.006;2023-01-10T03:54:10;6.60;99.90
28863;DHT22;15994;51.796;13.006;2023-01-10T03:56:45;6.50;99.90
28863;DHT22;15994;51.796;13.006;2023-01-10T03:59:14;6.50;99.90
28863;DHT22;15994;51.796;13.006;2023-01-10T04:01:41;6.50;99.90
28863;DHT22;15994;51.796;13.006;2023-01-10T04:04:08;6.50;99.90
28863;DHT22;15994;51.796;13.006;2023-01-10T04:06:35;6.50;99.90
28863;DHT22;15994;51.796;13.006;2023-01-10T04:09:02;6.50;99.90
28863;DHT22;15994;51.796;13.006;2023-01-10T04:11:29;6.50;99.90
28863;DHT22;15994;51.796;13.006;2023-01-10T04:13:55;6.50;99.90
28863;DHT22;15994;51.796;13.006;2023-01-10T04:16:22;6.50;99.90
28863;DHT22;15994;51.796;13.006;2023-01-10T04:18:48;6.50;99.90
28863;DHT22;15994;51.796;13.006;2023-01-10T04:21:15;6.50;99.90
28863;DHT22;15994;51.796;13.006;2023-01-10T04:23:42;6.50;99.90
28863;DHT22;15994;51.796;13.006;2023-01-10T04:26:08;6.50;99.90
28863;DHT22;15994;51.796;13.006;2023-01-10T04:28:35;6.60;99.90
28863;DHT22;15994;51.796;13.006;2023-01-10T04:31:02;6.60;99.90
28863;DHT22;15994;51.796;13.006;2023-01-10T04:33:29;6.50;99.90
28863;DHT22;15994;51.796;13.006;2023-01-10T04:35:55;6.50;99.90
28863;DHT22;15994;51.796;13.006;2023-01-10T04:38:22;6.50;99.90
28863;DHT22;15994;51.796;13.006;2023-01-10T04:40:55;6.50;99.90
28863;DHT22;15994;51.796;13.006;2023-01-10T04:43:23;6.50;99.90
28863;DHT22;15994;51.796;13.006;2023-01-10T04:45:50;6.50;99.90
28863;DHT22;15994;51.796;13.006;2023-01-10T04:48:17;6.50;99.90
28863;DHT22;15994;51.796;13.006;2023-01-10T04:50:48;6.50;99.90
28863;DHT22;15994;51.796;13.006;2023-01-10T04:53:16;6.50;99.90
28863;DHT22;15994;51.796;13.006;2023-01-10T04:55:42;6.50;99.90
28863;DHT22;15994;51.796;13.006;2023-01-10T04:58:09;6.50;99.90
28863;DHT22;15994;51.796;13.006;2023-01-10T05:00:35;6.50;99.90
28863;DHT22;15994;51.796;13.006;2023-01-10T05:03:02;6.40;99.90
28863;DHT22;15994;51.796;13.006;2023-01-10T05:05:29;6.50;99.90
28863;DHT22;15994;51.796;13.006;2023-01-10T05:07:56;6.40;99.90
28863;DHT22;15994;51.796;13.006;2023-01-10T05:10:22;6.50;99.90
28863;DHT22;15994;51.796;13.006;2023-01-10T05:12:50;6.50;99.90
28863;DHT22;15994;51.796;13.006;2023-01-10T05:15:16;6.40;99.90
28863;DHT22;15994;51.796;13.006;2023-01-10T05:17:45;6.40;99.90
28863;DHT22;15994;51.796;13.006;2023-01-10T05:20:12;6.30;99.90
28863;DHT22;15994;51.796;13.006;2023-01-10T05:22:38;6.30;99.90
28863;DHT22;15994;51.796;13.006;2023-01-10T05:25:05;6.30;99.90
28863;DHT22;15994;51.796;13.006;2023-01-10T05:27:32;6.30;99.90
28863;DHT22;15994;51.796;13.006;2023-01-10T05:29:58;6.30;99.90
28863;DHT22;15994;51.796;13.006;2023-01-10T05:32:27;6.30;99.90
28863;DHT22;15994;51.796;13.006;2023-01-10T05:34:54;6.30;99.90
28863;DHT22;15994;51.796;13.006;2023-01-10T05:37:21;6.30;99.90
28863;DHT22;15994;51.796;13.006;2023-01-10T05:39:47;6.30;99.90
28863;DHT22;15994;51.796;13.006;2023-01-10T05:42:14;6.30;99.90
28863;DHT22;15994;51.796;13.006;2023-01-10T05:44:40;6.40;99.90
28863;DHT22;15994;51.796;13.006;2023-01-10T05:47:07;6.40;99.90
28863;DHT22;15994;51.796;13.006;2023-01-10T05:49:33;6.30;99.90
28863;DHT22;15994;51.796;13.006;2023-01-10T05:52:00;6.30;99.90
28863;DHT22;15994;51.796;13.006;2023-01-10T05:54:26;6.30;99.90
28863;DHT22;15994;51.796;13.006;2023-01-10T05:56:54;6.30;99.90
28863;DHT22;15994;51.796;13.006;2023-01-10T05:59:20;6.30;99.90
28863;DHT22;15994;51.796;13.006;2023-01-10T06:01:47;6.30;99.90
28863;DHT22;15994;51.796;13.006;2023-01-10T06:04:14;6.30;99.90
28863;DHT22;15994;51.796;13.006;2023-01-10T06:06:40;6.30;99.90
28863;DHT22;15994;51.796;13.006;2023-01-10T06:09:07;6.30;99.90
28863;DHT22;15994;51.796;13.006;2023-01-10T06:11:33;6.30;99.90
28863;DHT22;15994;51.796;13.006;2023-01-10T06:14:03;6.30;99.90
28863;DHT22;15994;51.796;13.006;2023-01-10T06:16:31;6.30;99.90
28863;DHT22;15994;51.796;13.006;2023-01-10T06:18:58;6.30;99.90
28863;DHT22;15994;51.796;13.006;2023-01-10T06:21:24;6.30;99.90
28863;DHT22;15994;51.796;13.006;2023-01-10T06:23:50;6.30;99.90
28863;DHT22;15994;51.796;13.006;2023-01-10T06:26:17;6.30;99.90
28863;DHT22;15994;51.796;13.006;2023-01-10T06:28:43;6.30;99.90
28863;DHT22;15994;51.796;13.006;2023-01-10T06:31:10;6.30;99.90
28863;DHT22;15994;51.796;13.006;2023-01-10T06:33:39;6.30;99.90
28863;DHT22;15994;51.796;13.006;2023-01-10T06:36:06;6.30;99.90
28863;DHT22;15994;51.796;13.006;2023-01-10T06:38:32;6.30;99.90
28863;DHT22;15994;51.796;13.006;2023-01-10T06:40:59;6.40;99.90
28863;DHT22;15994;51.796;13.006;2023-01-10T06:43:44;6.30;99.90
28863;DHT22;15994;51.796;13.006;2023-01-10T06:46:15;6.30;99.90
28863;DHT22;15994;51.796;13.006;2023-01-10T06:48:44;6.30;99.90
28863;DHT22;15994;51.796;13.006;2023-01-10T06:51:12;6.40;99.90
28863;DHT22;15994;51.796;13.006;2023-01-10T06:53:40;6.30;99.90
28863;DHT22;15994;51.796;13.006;2023-01-10T06:56:07;6.30;99.90
28863;DHT22;15994;51.796;13.006;2023-01-10T06:58:34;6.30;99.90
28863;DHT22;15994;51.796;13.006;2023-01-10T07:01:04;6.30;99.90
28863;DHT22;15994;51.796;13.006;2023-01-10T07:03:30;6.40;99.90
28863;DHT22;15994;51.796;13.006;2023-01-10T07:06:00;6.30;99.90
28863;DHT22;15994;51.796;13.006;2023-01-10T07:08:27;6.30;99.90
28863;DHT22;15994;51.796;13.006;2023-01-10T07:10:56;6.40;99.90
28863;DHT22;15994;51.796;13.006;2023-01-10T07:13:23;6.30;99.90
28863;DHT22;15994;51.796;13.006;2023-01-10T07:15:49;6.30;99.90
28863;DHT22;15994;51.796;13.006;2023-01-10T07:18:16;6.40;99.90
28863;DHT22;15994;51.796;13.006;2023-01-10T07:20:43;6.40;99.90
28863;DHT22;15994;51.796;13.006;2023-01-10T07:23:10;6.40;99.90
28863;DHT22;15994;51.796;13.006;2023-01-10T07:25:36;6.40;99.90
28863;DHT22;15994;51.796;13.006;2023-01-10T07:28:03;6.30;99.90
28863;DHT22;15994;51.796;13.006;2023-01-10T07:30:30;6.30;99.90
28863;DHT22;15994;51.796;13.006;2023-01-10T07:32:57;6.40;99.90
28863;DHT22;15994;51.796;13.006;2023-01-10T07:35:25;6.40;99.90
28863;DHT22;15994;51.796;13.006;2023-01-10T07:37:52;6.40;99.90
28863;DHT22;15994;51.796;13.006;2023-01-10T07:40:18;6.40;99.90
28863;DHT22;15994;51.796;13.006;2023-01-10T07:42:45;6.50;99.90
28863;DHT22;15994;51.796;13.006;2023-01-10T07:45:11;6.50;99.90
28863;DHT22;15994;51.796;13.006;2023-01-10T07:47:38;6.40;99.90
28863;DHT22;15994;51.796;13.006;2023-01-10T07:50:05;6.50;99.90
28863;DHT22;15994;51.796;13.006;2023-01-10T07:52:32;6.50;99.90
28863;DHT22;15994;51.796;13.006;2023-01-10T07:54:59;6.50;99.90
28863;DHT22;15994;51.796;13.006;2023-01-10T07:57:25;6.40;99.90
28863;DHT22;15994;51.796;13.006;2023-01-10T07:59:52;6.50;99.90
28863;DHT22;15994;51.796;13.006;2023-01-10T08:02:18;6.40;99.90
28863;DHT22;15994;51.796;13.006;2023-01-10T08:04:45;6.40;99.90
28863;DHT22;15994;51.796;13.006;2023-01-10T08:07:11;6.50;99.90
28863;DHT22;15994;51.796;13.006;2023-01-10T08:09:38;6.50;99.90
28863;DHT22;15994;51.796;13.006;2023-01-10T08:12:04;6.60;99.90
28863;DHT22;15994;51.796;13.006;2023-01-10T08:14:31;6.60;99.90
28863;DHT22;15994;51.796;13.006;2023-01-10T08:16:57;6.60;99.90
28863;DHT22;15994;51.796;13.006;2023-01-10T08:19:24;6.60;99.90
28863;DHT22;15994;51.796;13.006;2023-01-10T08:21:50;6.60;99.90
28863;DHT22;15994;51.796;13.006;2023-01-10T08:24:17;6.60;99.90
28863;DHT22;15994;51.796;13.006;2023-01-10T08:26:43;6.60;99.90
28863;DHT22;15994;51.796;13.006;2023-01-10T08:29:10;6.60;99.90
28863;DHT22;15994;51.796;13.006;2023-01-10T08:31:37;6.60;99.90
28863;DHT22;15994;51.796;13.006;2023-01-10T08:34:05;6.70;99.90
28863;DHT22;15994;51.796;13.006;2023-01-10T08:36:31;6.70;99.90
28863;DHT22;15994;51.796;13.006;2023-01-10T08:38:58;6.70;99.90
28863;DHT22;15994;51.796;13.006;2023-01-10T08:41:24;6.70;99.90
28863;DHT22;15994;51.796;13.006;2023-01-10T08:43:51;6.60;99.90
28863;DHT22;15994;51.796;13.006;2023-01-10T08:46:18;6.60;99.90
28863;DHT22;15994;51.796;13.006;2023-01-10T08:48:45;6.70;99.90
28863;DHT22;15994;51.796;13.006;2023-01-10T08:51:12;6.70;99.90
28863;DHT22;15994;51.796;13.006;2023-01-10T08:53:39;6.70;99.90
28863;DHT22;15994;51.796;13.006;2023-01-10T08:56:06;6.70;99.90
28863;DHT22;15994;51.796;13.006;2023-01-10T08:58:32;6.80;99.90
28863;DHT22;15994;51.796;13.006;2023-01-10T09:01:03;6.80;99.90
28863;DHT22;15994;51.796;13.006;2023-01-10T09:03:30;6.90;99.90
28863;DHT22;15994;51.796;13.006;2023-01-10T09:05:58;6.90;99.90
28863;DHT22;15994;51.796;13.006;2023-01-10T09:08:25;6.90;99.90
28863;DHT22;15994;51.796;13.006;2023-01-10T09:10:51;7.00;99.90
28863;DHT22;15994;51.796;13.006;2023-01-10T09:13:18;7.10;99.90
28863;DHT22;15994;51.796;13.006;2023-01-10T09:15:45;7.10;99.90
28863;DHT22;15994;51.796;13.006;2023-01-10T09:18:12;7.10;99.90
28863;DHT22;15994;51.796;13.006;2023-01-10T09:20:40;7.10;99.90
28863;DHT22;15994;51.796;13.006;2023-01-10T09:23:15;7.20;99.90
28863;DHT22;15994;51.796;13.006;2023-01-10T09:25:43;7.10;99.90
28863;DHT22;15994;51.796;13.006;2023-01-10T09:28:10;7.20;99.90
28863;DHT22;15994;51.796;13.006;2023-01-10T09:30:37;7.20;99.90
28863;DHT22;15994;51.796;13.006;2023-01-10T09:33:04;7.20;99.90
28863;DHT22;15994;51.796;13.006;2023-01-10T09:35:34;7.20;99.90
28863;DHT22;15994;51.796;13.006;2023-01-10T09:38:02;7.20;99.90
28863;DHT22;15994;51.796;13.006;2023-01-10T09:43:50;7.20;99.90
28863;DHT22;15994;51.796;13.006;2023-01-10T09:46:35;7.30;99.90
28863;DHT22;15994;51.796;13.006;2023-01-10T09:49:24;7.30;99.90
28863;DHT22;15994;51.796;13.006;2023-01-10T09:51:56;7.30;99.90
28863;DHT22;15994;51.796;13.006;2023-01-10T09:54:28;7.30;99.90
28863;DHT22;15994;51.796;13.006;2023-01-10T09:56:58;7.30;99.90
28863;DHT22;15994;51.796;13.006;2023-01-10T09:59:37;7.40;99.90
28863;DHT22;15994;51.796;13.006;2023-01-10T10:02:22;7.50;99.90
28863;DHT22;15994;51.796;13.006;2023-01-10T10:05:15;7.60;99.90
28863;DHT22;15994;51.796;13.006;2023-01-10T10:07:43;7.70;99.90
28863;DHT22;15994;51.796;13.006;2023-01-10T10:10:15;7.70;99.90
28863;DHT22;15994;51.796;13.006;2023-01-10T10:18:09;7.60;99.90
28863;DHT22;15994;51.796;13.006;2023-01-10T10:21:02;7.70;99.90
28863;DHT22;15994;51.796;13.006;2023-01-10T10:23:40;7.90;99.90
28863;DHT22;15994;51.796;13.006;2023-01-10T10:26:32;7.90;99.90
28863;DHT22;15994;51.796;13.006;2023-01-10T10:31:59;7.80;99.90
28863;DHT22;15994;51.796;13.006;2023-01-10T10:34:57;7.80;99.90
28863;DHT22;15994;51.796;13.006;2023-01-10T10:37:38;7.80;99.90
28863;DHT22;15994;51.796;13.006;2023-01-10T10:40:27;7.80;99.90
28863;DHT22;15994;51.796;13.006;2023-01-10T10:42:58;7.80;99.90
28863;DHT22;15994;51.796;13.006;2023-01-10T10:48:24;7.90;99.90
28863;DHT22;15994;51.796;13.006;2023-01-10T10:53:24;7.90;99.90
28863;DHT22;15994;51.796;13.006;2023-01-10T10:55:52;7.90;99.90
28863;DHT22;15994;51.796;13.006;2023-01-10T10:58:18;7.90;99.90
28863;DHT22;15994;51.796;13.006;2023-01-10T11:00:45;7.80;99.90
28863;DHT22;15994;51.796;13.006;2023-01-10T11:03:37;7.80;99.90
28863;DHT22;15994;51.796;13.006;2023-01-10T11:06:06;7.80;99.90
28863;DHT22;15994;51.796;13.006;2023-01-10T11:08:35;7.90;99.90
28863;DHT22;15994;51.796;13.006;2023-01-10T11:11:03;8.00;99.90
28863;DHT22;15994;51.796;13.006;2023-01-10T11:16:04;8.20;99.90
28863;DHT22;15994;51.796;13.006;2023-01-10T11:18:32;8.30;99.90
28863;DHT22;15994;51.796;13.006;2023-01-10T11:21:10;8.40;99.90
28863;DHT22;15994;51.796;13.006;2023-01-10T11:23:53;8.50;99.90
28863;DHT22;15994;51.796;13.006;2023-01-10T11:26:38;8.50;99.90
28863;DHT22;15994;51.796;13.006;2023-01-10T11:29:19;8.50;99.90
28863;DHT22;15994;51.796;13.006;2023-01-10T11:31:48;8.50;99.90
28863;DHT22;15994;51.796;13.006;2023-01-10T11:34:24;8.60;99.90
28863;DHT22;15994;51.796;13.006;2023-01-10T11:36:57;8.50;99.90
28863;DHT22;15994;51.796;13.006;2023-01-10T11:39:24;8.50;99.90
28863;DHT22;15994;51.796;13.006;2023-01-10T11:41:51;8.50;99.90
28863;DHT22;15994;51.796;13.006;2023-01-10T11:44:27;8.50;99.90
28863;DHT22;15994;51.796;13.006;2023-01-10T11:46:56;8.50;99.90
28863;DHT22;15994;51.796;13.006;2023-01-10T11:49:33;8.50;99.90
28863;DHT22;15994;51.796;13.006;2023-01-10T11:52:12;8.50;99.90
28863;DHT22;15994;51.796;13.006;2023-01-10T11:54:41;8.50;99.90
28863;DHT22;15994;51.796;13.006;2023-01-10T11:57:20;8.50;99.90
28863;DHT22;15994;51.796;13.006;2023-01-10T11:59:55;8.40;99.90
28863;DHT22;15994;51.796;13.006;2023-01-10T12:02:31;8.30;99.90
28863;DHT22;15994;51.796;13.006;2023-01-10T12:05:03;8.20;99.90
28863;DHT22;15994;51.796;13.006;2023-01-10T12:08:04;8.20;99.90
28863;DHT22;15994;51.796;13.006;2023-01-10T12:10:34;8.20;99.90
28863;DHT22;15994;51.796;13.006;2023-01-10T12:13:15;8.20;99.90
28863;DHT22;15994;51.796;13.006;2023-01-10T12:15:41;8.20;99.90
28863;DHT22;15994;51.796;13.006;2023-01-10T12:18:10;8.20;99.90
28863;DHT22;15994;51.796;13.006;2023-01-10T12:20:46;8.20;99.90
28863;DHT22;15994;51.796;13.006;2023-01-10T12:23:17;8.30;99.90
28863;DHT22;15994;51.796;13.006;2023-01-10T12:25:45;8.40;99.90
28863;DHT22;15994;51.796;13.006;2023-01-10T12:28:27;8.40;99.90
28863;DHT22;15994;51.796;13.006;2023-01-10T12:30:56;8.40;99.90
28863;DHT22;15994;51.796;13.006;2023-01-10T12:33:47;8.50;99.90
28863;DHT22;15994;51.796;13.006;2023-01-10T12:39:31;8.50;99.90
28863;DHT22;15994;51.796;13.006;2023-01-10T12:45:13;8.60;99.90
28863;DHT22;15994;51.796;13.006;2023-01-10T12:53:05;8.70;99.90
28863;DHT22;15994;51.796;13.006;2023-01-10T12:55:39;8.70;99.90
28863;DHT22;15994;51.796;13.006;2023-01-10T12:58:18;8.70;99.90
28863;DHT22;15994;51.796;13.006;2023-01-10T13:00:50;8.70;99.90
28863;DHT22;15994;51.796;13.006;2023-01-10T13:03:25;8.70;99.90
28863;DHT22;15994;51.796;13.006;2023-01-10T13:05:53;8.60;99.90
28863;DHT22;15994;51.796;13.006;2023-01-10T13:08:22;8.60;99.90
28863;DHT22;15994;51.796;13.006;2023-01-10T13:10:53;8.60;99.90
28863;DHT22;15994;51.796;13.006;2023-01-10T13:13:42;8.50;99.90
28863;DHT22;15994;51.796;13.006;2023-01-10T13:16:27;8.60;99.90
28863;DHT22;15994;51.796;13.006;2023-01-10T13:21:40;8.60;99.90
28863;DHT22;15994;51.796;13.006;2023-01-10T13:26:59;8.50;99.90
28863;DHT22;15994;51.796;13.006;2023-01-10T13:29:41;8.20;99.90
28863;DHT22;15994;51.796;13.006;2023-01-10T13:32:20;8.10;99.90
28863;DHT22;15994;51.796;13.006;2023-01-10T13:34:48;8.10;99.90
28863;DHT22;15994;51.796;13.006;2023-01-10T13:37:31;8.10;99.90
28863;DHT22;15994;51.796;13.006;2023-01-10T13:40:00;8.10;99.90
28863;DHT22;15994;51.796;13.006;2023-01-10T13:42:35;8.20;99.90
28863;DHT22;15994;51.796;13.006;2023-01-10T13:45:30;8.30;99.90
28863;DHT22;15994;51.796;13.006;2023-01-10T13:48:01;8.30;99.90
28863;DHT22;15994;51.796;13.006;2023-01-10T14:06:18;8.10;99.90
28863;DHT22;15994;51.796;13.006;2023-01-10T14:11:25;8.00;99.90
28863;DHT22;15994;51.796;13.006;2023-01-10T14:13:59;8.00;99.90
28863;DHT22;15994;51.796;13.006;2023-01-10T14:16:34;7.90;99.90
28863;DHT22;15994;51.796;13.006;2023-01-10T14:19:18;7.80;99.90
28863;DHT22;15994;51.796;13.006;2023-01-10T14:21:51;7.80;99.90
28863;DHT22;15994;51.796;13.006;2023-01-10T14:26:52;7.70;99.90
28863;DHT22;15994;51.796;13.006;2023-01-10T14:29:19;7.70;99.90
28863;DHT22;15994;51.796;13.006;2023-01-10T14:31:47;7.70;99.90
28863;DHT22;15994;51.796;13.006;2023-01-10T14:34:26;7.70;99.90
28863;DHT22;15994;51.796;13.006;2023-01-10T14:36:54;7.60;99.90
28863;DHT22;15994;51.796;13.006;2023-01-10T14:39:24;7.60;99.90
28863;DHT22;15994;51.796;13.006;2023-01-10T14:41:58;7.60;99.90
28863;DHT22;15994;51.796;13.006;2023-01-10T14:44:36;7.60;99.90
28863;DHT22;15994;51.796;13.006;2023-01-10T14:47:04;7.60;99.90
28863;DHT22;15994;51.796;13.006;2023-01-10T14:49:34;7.70;99.90
28863;DHT22;15994;51.796;13.006;2023-01-10T14:52:16;7.70;99.90
28863;DHT22;15994;51.796;13.006;2023-01-10T14:54:45;7.70;99.90
28863;DHT22;15994;51.796;13.006;2023-01-10T14:57:18;7.80;99.90
28863;DHT22;15994;51.796;13.006;2023-01-10T14:59:45;7.80;99.90
28863;DHT22;15994;51.796;13.006;2023-01-10T15:02:16;7.80;99.90
28863;DHT22;15994;51.796;13.006;2023-01-10T15:04:55;7.90;99.90
28863;DHT22;15994;51.796;13.006;2023-01-10T15:07:23;7.90;99.90
28863;DHT22;15994;51.796;13.006;2023-01-10T15:09:55;7.90;99.90
28863;DHT22;15994;51.796;13.006;2023-01-10T15:12:27;7.80;99.90
28863;DHT22;15994;51.796;13.006;2023-01-10T15:15:17;7.80;99.90
28863;DHT22;15994;51.796;13.006;2023-01-10T15:17:45;7.80;99.90
28863;DHT22;15994;51.796;13.006;2023-01-10T15:20:17;7.70;99.90
28863;DHT22;15994;51.796;13.006;2023-01-10T15:22:53;7.80;99.90
28863;DHT22;15994;51.796;13.006;2023-01-10T15:27:49;7.70;99.90
28863;DHT22;15994;51.796;13.006;2023-01-10T15:30:20;7.70;99.90
28863;DHT22;15994;51.796;13.006;2023-01-10T15:32:53;7.70;99.90
28863;DHT22;15994;51.796;13.006;2023-01-10T15:35:22;7.70;99.90
28863;DHT22;15994;51.796;13.006;2023-01-10T15:37:56;7.70;99.90
28863;DHT22;15994;51.796;13.006;2023-01-10T15:40:33;7.70;99.90
28863;DHT22;15994;51.796;13.006;2023-01-10T15:45:45;7.70;99.90
28863;DHT22;15994;51.796;13.006;2023-01-10T15:48:35;7.60;99.90
28863;DHT22;15994;51.796;13.006;2023-01-10T15:51:23;7.60;99.90
28863;DHT22;15994;51.796;13.006;2023-01-10T15:54:25;7.60;99.90
28863;DHT22;15994;51.796;13.006;2023-01-10T15:56:53;7.60;99.90
28863;DHT22;15994;51.796;13.006;2023-01-10T15:59:27;7.60;99.90
28863;DHT22;15994;51.796;13.006;2023-01-10T16:04:26;7.60;99.90
28863;DHT22;15994;51.796;13.006;2023-01-10T16:07:08;7.50;99.90
28863;DHT22;15994;51.796;13.006;2023-01-10T16:09:38;7.50;99.90
28863;DHT22;15994;51.796;13.006;2023-01-10T16:12:05;7.40;99.90
28863;DHT22;15994;51.796;13.006;2023-01-10T16:14:49;7.40;99.90
28863;DHT22;15994;51.796;13.006;2023-01-10T16:17:16;7.20;99.90
28863;DHT22;15994;51.796;13.006;2023-01-10T16:19:42;7.10;99.90
28863;DHT22;15994;51.796;13.006;2023-01-10T16:22:16;7.00;99.90
28863;DHT22;15994;51.796;13.006;2023-01-10T16:24:43;6.90;99.90
28863;DHT22;15994;51.796;13.006;2023-01-10T16:27:11;6.90;99.90
28863;DHT22;15994;51.796;13.006;2023-01-10T16:29:38;6.80;99.90
28863;DHT22;15994;51.796;13.006;2023-01-10T16:32:13;6.70;99.90
28863;DHT22;15994;51.796;13.006;2023-01-10T16:34:40;6.70;99.90
28863;DHT22;15994;51.796;13.006;2023-01-10T16:37:08;6.60;99.90
28863;DHT22;15994;51.796;13.006;2023-01-10T16:39:34;6.50;99.90
28863;DHT22;15994;51.796;13.006;2023-01-10T16:42:01;6.50;99.90
28863;DHT22;15994;51.796;13.006;2023-01-10T16:44:45;6.50;99.90
28863;DHT22;15994;51.796;13.006;2023-01-10T16:47:11;6.50;99.90
28863;DHT22;15994;51.796;13.006;2023-01-10T16:49:38;6.50;99.90
28863;DHT22;15994;51.796;13.006;2023-01-10T16:52:06;6.50;99.90
28863;DHT22;15994;51.796;13.006;2023-01-10T16:54:32;6.50;99.90
28863;DHT22;15994;51.796;13.006;2023-01-10T16:57:01;6.50;99.90
28863;DHT22;15994;51.796;13.006;2023-01-10T16:59:28;6.50;99.90
28863;DHT22;15994;51.796;13.006;2023-01-10T17:01:57;6.40;99.90
28863;DHT22;15994;51.796;13.006;2023-01-10T17:04:25;6.40;99.90
28863;DHT22;15994;51.796;13.006;2023-01-10T17:06:54;6.30;99.90
28863;DHT22;15994;51.796;13.006;2023-01-10T17:09:26;6.30;99.90
28863;DHT22;15994;51.796;13.006;2023-01-10T17:12:15;6.30;99.90
28863;DHT22;15994;51.796;13.006;2023-01-10T17:14:43;6.20;99.90
28863;DHT22;15994;51.796;13.006;2023-01-10T17:17:12;6.20;99.90
28863;DHT22;15994;51.796;13.006;2023-01-10T17:19:38;6.20;99.90